sensor_id;sensor_type;location;lat;lon;timestamp;P1;durP1;ratioP1;P2;durP2;ratioP2
64682;SDS011;51107;47.652;19.016;2022-09-29T00:01:16;3.55;;;1.83;;
64682;SDS011;51107;47.652;19.016;2022-09-29T00:03:46;1.83;;;1.40;;
64682;SDS011;51107;47.652;19.016;2022-09-29T00:06:15;3.22;;;1.60;;
64682;SDS011;51107;47.652;19.016;2022-09-29T00:08:45;1.62;;;0.93;;
64682;SDS011;51107;47.652;19.016;2022-09-29T00:11:15;1.08;;;0.93;;
64682;SDS011;51107;47.652;19.016;2022-09-29T00:13:45;1.35;;;1.00;;
64682;SDS011;51107;47.652;19.016;2022-09-29T00:16:14;1.10;;;0.85;;
64682;SDS011;51107;47.652;19.016;2022-09-29T00:18:43;2.03;;;1.33;;
64682;SDS011;51107;47.652;19.016;2022-09-29T00:21:12;2.30;;;1.35;;
64682;SDS011;51107;47.652;19.016;2022-09-29T00:23:43;1.35;;;0.98;;
64682;SDS011;51107;47.652;19.016;2022-09-29T00:26:13;1.23;;;0.90;;
64682;SDS011;51107;47.652;19.016;2022-09-29T00:28:46;1.77;;;1.40;;
64682;SDS011;51107;47.652;19.016;2022-09-29T00:31:16;8.52;;;2.53;;
64682;SDS011;51107;47.652;19.016;2022-09-29T00:33:44;1.62;;;1.15;;
64682;SDS011;51107;47.652;19.016;2022-09-29T00:36:13;1.98;;;1.25;;
64682;SDS011;51107;47.652;19.016;2022-09-29T00:38:43;1.35;;;1.08;;
64682;SDS011;51107;47.652;19.016;2022-09-29T00:41:15;2.55;;;1.10;;
64682;SDS011;51107;47.652;19.016;2022-09-29T00:49:28;2.58;;;1.35;;
64682;SDS011;51107;47.652;19.016;2022-09-29T00:51:59;1.45;;;1.20;;
64682;SDS011;51107;47.652;19.016;2022-09-29T00:54:34;1.20;;;1.10;;
64682;SDS011;51107;47.652;19.016;2022-09-29T00:57:08;1.62;;;0.85;;
64682;SDS011;51107;47.652;19.016;2022-09-29T00:59:58;2.42;;;1.52;;
64682;SDS011;51107;47.652;19.016;2022-09-29T01:02:41;1.70;;;1.20;;
64682;SDS011;51107;47.652;19.016;2022-09-29T01:05:22;0.90;;;0.80;;
64682;SDS011;51107;47.652;19.016;2022-09-29T01:07:55;1.50;;;1.08;;
64682;SDS011;51107;47.652;19.016;2022-09-29T01:10:23;1.67;;;1.25;;
64682;SDS011;51107;47.652;19.016;2022-09-29T01:12:52;2.20;;;1.12;;
64682;SDS011;51107;47.652;19.016;2022-09-29T01:15:21;2.95;;;1.55;;
64682;SDS011;51107;47.652;19.016;2022-09-29T01:17:49;1.12;;;1.02;;
64682;SDS011;51107;47.652;19.016;2022-09-29T01:20:18;1.25;;;0.90;;
64682;SDS011;51107;47.652;19.016;2022-09-29T01:26:02;2.78;;;1.37;;
64682;SDS011;51107;47.652;19.016;2022-09-29T01:28:47;1.92;;;1.15;;
64682;SDS011;51107;47.652;19.016;2022-09-29T01:40:20;4.82;;;1.20;;
64682;SDS011;51107;47.652;19.016;2022-09-29T01:43:07;1.60;;;1.00;;
64682;SDS011;51107;47.652;19.016;2022-09-29T01:45:47;1.95;;;1.05;;
64682;SDS011;51107;47.652;19.016;2022-09-29T01:48:29;3.42;;;1.67;;
64682;SDS011;51107;47.652;19.016;2022-09-29T01:51:03;2.47;;;1.77;;
64682;SDS011;51107;47.652;19.016;2022-09-29T01:56:10;2.45;;;1.20;;
64682;SDS011;51107;47.652;19.016;2022-09-29T01:58:55;2.17;;;1.48;;
64682;SDS011;51107;47.652;19.016;2022-09-29T02:01:29;2.22;;;1.50;;
64682;SDS011;51107;47.652;19.016;2022-09-29T02:04:10;3.03;;;1.00;;
64682;SDS011;51107;47.652;19.016;2022-09-29T02:06:46;2.10;;;1.50;;
64682;SDS011;51107;47.652;19.016;2022-09-29T02:09:25;1.90;;;1.50;;
64682;SDS011;51107;47.652;19.016;2022-09-29T02:12:00;3.20;;;1.73;;
64682;SDS011;51107;47.652;19.016;2022-09-29T02:14:32;4.75;;;1.30;;
64682;SDS011;51107;47.652;19.016;2022-09-29T02:17:11;2.33;;;1.60;;
64682;SDS011;51107;47.652;19.016;2022-09-29T02:19:48;1.95;;;1.27;;
64682;SDS011;51107;47.652;19.016;2022-09-29T02:22:18;1.05;;;0.93;;
64682;SDS011;51107;47.652;19.016;2022-09-29T02:24:48;1.70;;;1.02;;
64682;SDS011;51107;47.652;19.016;2022-09-29T02:27:19;1.87;;;1.08;;
64682;SDS011;51107;47.652;19.016;2022-09-29T02:29:49;2.33;;;1.33;;
64682;SDS011;51107;47.652;19.016;2022-09-29T02:32:17;2.17;;;1.25;;
64682;SDS011;51107;47.652;19.016;2022-09-29T02:34:47;1.17;;;0.88;;
64682;SDS011;51107;47.652;19.016;2022-09-29T02:40:15;2.42;;;1.40;;
64682;SDS011;51107;47.652;19.016;2022-09-29T02:43:19;1.52;;;1.17;;
64682;SDS011;51107;47.652;19.016;2022-09-29T02:52:08;1.80;;;1.40;;
64682;SDS011;51107;47.652;19.016;2022-09-29T02:55:01;1.77;;;1.12;;
64682;SDS011;51107;47.652;19.016;2022-09-29T02:57:44;1.60;;;1.25;;
64682;SDS011;51107;47.652;19.016;2022-09-29T03:00:18;2.72;;;1.30;;
64682;SDS011;51107;47.652;19.016;2022-09-29T03:02:47;5.15;;;1.90;;
64682;SDS011;51107;47.652;19.016;2022-09-29T03:05:16;3.15;;;1.42;;
64682;SDS011;51107;47.652;19.016;2022-09-29T03:07:47;2.97;;;1.87;;
64682;SDS011;51107;47.652;19.016;2022-09-29T03:10:16;2.03;;;1.15;;
64682;SDS011;51107;47.652;19.016;2022-09-29T03:12:44;2.60;;;1.65;;
64682;SDS011;51107;47.652;19.016;2022-09-29T03:15:14;2.25;;;1.65;;
64682;SDS011;51107;47.652;19.016;2022-09-29T03:17:42;4.28;;;2.05;;
64682;SDS011;51107;47.652;19.016;2022-09-29T03:20:10;2.17;;;1.42;;
64682;SDS011;51107;47.652;19.016;2022-09-29T03:22:39;1.65;;;1.45;;
64682;SDS011;51107;47.652;19.016;2022-09-29T03:25:07;2.08;;;1.30;;
64682;SDS011;51107;47.652;19.016;2022-09-29T03:27:36;3.05;;;1.55;;
64682;SDS011;51107;47.652;19.016;2022-09-29T03:30:05;2.58;;;1.48;;
64682;SDS011;51107;47.652;19.016;2022-09-29T03:32:34;2.17;;;1.25;;
64682;SDS011;51107;47.652;19.016;2022-09-29T03:35:02;2.33;;;1.60;;
64682;SDS011;51107;47.652;19.016;2022-09-29T03:37:31;2.80;;;2.15;;
64682;SDS011;51107;47.652;19.016;2022-09-29T03:39:59;2.03;;;1.40;;
64682;SDS011;51107;47.652;19.016;2022-09-29T03:42:28;3.67;;;1.90;;
64682;SDS011;51107;47.652;19.016;2022-09-29T03:44:56;2.00;;;1.45;;
64682;SDS011;51107;47.652;19.016;2022-09-29T03:47:25;2.90;;;2.35;;
64682;SDS011;51107;47.652;19.016;2022-09-29T03:49:53;3.20;;;1.73;;
64682;SDS011;51107;47.652;19.016;2022-09-29T03:52:21;3.40;;;1.45;;
64682;SDS011;51107;47.652;19.016;2022-09-29T03:54:50;2.78;;;1.75;;
64682;SDS011;51107;47.652;19.016;2022-09-29T03:57:18;2.20;;;1.62;;
64682;SDS011;51107;47.652;19.016;2022-09-29T03:59:47;4.87;;;2.25;;
64682;SDS011;51107;47.652;19.016;2022-09-29T04:02:16;4.03;;;2.72;;
64682;SDS011;51107;47.652;19.016;2022-09-29T04:04:47;3.60;;;2.75;;
64682;SDS011;51107;47.652;19.016;2022-09-29T04:07:15;3.60;;;2.20;;
64682;SDS011;51107;47.652;19.016;2022-09-29T04:09:44;3.37;;;2.35;;
64682;SDS011;51107;47.652;19.016;2022-09-29T04:12:12;3.70;;;2.40;;
64682;SDS011;51107;47.652;19.016;2022-09-29T04:14:41;4.20;;;2.33;;
64682;SDS011;51107;47.652;19.016;2022-09-29T04:17:09;2.92;;;2.00;;
64682;SDS011;51107;47.652;19.016;2022-09-29T04:19:38;6.97;;;2.40;;
64682;SDS011;51107;47.652;19.016;2022-09-29T04:22:06;2.22;;;1.77;;
64682;SDS011;51107;47.652;19.016;2022-09-29T04:24:34;3.12;;;2.22;;
64682;SDS011;51107;47.652;19.016;2022-09-29T04:27:03;3.97;;;2.58;;
64682;SDS011;51107;47.652;19.016;2022-09-29T04:29:31;4.45;;;1.95;;
64682;SDS011;51107;47.652;19.016;2022-09-29T04:31:59;6.72;;;2.40;;
64682;SDS011;51107;47.652;19.016;2022-09-29T04:34:28;4.25;;;2.00;;
64682;SDS011;51107;47.652;19.016;2022-09-29T04:36:56;2.53;;;1.87;;
64682;SDS011;51107;47.652;19.016;2022-09-29T04:39:24;3.00;;;1.70;;
64682;SDS011;51107;47.652;19.016;2022-09-29T04:41:53;4.15;;;2.35;;
64682;SDS011;51107;47.652;19.016;2022-09-29T04:44:21;3.25;;;1.58;;
64682;SDS011;51107;47.652;19.016;2022-09-29T04:46:51;3.60;;;2.17;;
64682;SDS011;51107;47.652;19.016;2022-09-29T04:49:20;3.65;;;2.00;;
64682;SDS011;51107;47.652;19.016;2022-09-29T04:51:48;6.28;;;2.10;;
64682;SDS011;51107;47.652;19.016;2022-09-29T04:54:17;5.25;;;2.25;;
64682;SDS011;51107;47.652;19.016;2022-09-29T04:56:48;2.42;;;1.50;;
64682;SDS011;51107;47.652;19.016;2022-09-29T04:59:17;3.10;;;2.03;;
64682;SDS011;51107;47.652;19.016;2022-09-29T05:01:47;4.82;;;1.52;;
64682;SDS011;51107;47.652;19.016;2022-09-29T05:04:15;2.67;;;1.37;;
64682;SDS011;51107;47.652;19.016;2022-09-29T05:06:44;1.90;;;1.62;;
64682;SDS011;51107;47.652;19.016;2022-09-29T05:09:13;1.58;;;1.48;;
64682;SDS011;51107;47.652;19.016;2022-09-29T05:11:41;2.75;;;1.90;;
64682;SDS011;51107;47.652;19.016;2022-09-29T05:14:09;2.50;;;1.90;;
64682;SDS011;51107;47.652;19.016;2022-09-29T05:16:38;6.45;;;2.15;;
64682;SDS011;51107;47.652;19.016;2022-09-29T05:19:07;3.47;;;2.10;;
64682;SDS011;51107;47.652;19.016;2022-09-29T05:21:35;2.85;;;1.70;;
64682;SDS011;51107;47.652;19.016;2022-09-29T05:24:03;2.75;;;1.80;;
64682;SDS011;51107;47.652;19.016;2022-09-29T05:26:31;3.55;;;2.35;;
64682;SDS011;51107;47.652;19.016;2022-09-29T05:28:59;2.50;;;1.92;;
64682;SDS011;51107;47.652;19.016;2022-09-29T05:31:28;3.33;;;2.25;;
64682;SDS011;51107;47.652;19.016;2022-09-29T05:33:57;3.22;;;2.00;;
64682;SDS011;51107;47.652;19.016;2022-09-29T05:36:25;3.20;;;1.98;;
64682;SDS011;51107;47.652;19.016;2022-09-29T05:38:53;3.22;;;1.95;;
64682;SDS011;51107;47.652;19.016;2022-09-29T05:41:22;4.45;;;2.20;;
64682;SDS011;51107;47.652;19.016;2022-09-29T05:43:51;2.62;;;1.83;;
64682;SDS011;51107;47.652;19.016;2022-09-29T05:46:21;5.97;;;2.17;;
64682;SDS011;51107;47.652;19.016;2022-09-29T05:48:49;4.85;;;3.00;;
64682;SDS011;51107;47.652;19.016;2022-09-29T05:51:19;3.45;;;2.58;;
64682;SDS011;51107;47.652;19.016;2022-09-29T05:53:50;4.40;;;3.28;;
64682;SDS011;51107;47.652;19.016;2022-09-29T05:56:23;6.82;;;3.40;;
64682;SDS011;51107;47.652;19.016;2022-09-29T05:58:53;5.83;;;3.37;;
64682;SDS011;51107;47.652;19.016;2022-09-29T06:01:23;5.25;;;3.15;;
64682;SDS011;51107;47.652;19.016;2022-09-29T06:03:52;6.10;;;3.72;;
64682;SDS011;51107;47.652;19.016;2022-09-29T06:06:22;6.25;;;4.10;;
64682;SDS011;51107;47.652;19.016;2022-09-29T06:08:53;7.68;;;3.75;;
64682;SDS011;51107;47.652;19.016;2022-09-29T06:11:25;5.53;;;3.40;;
64682;SDS011;51107;47.652;19.016;2022-09-29T06:13:58;6.30;;;3.50;;
64682;SDS011;51107;47.652;19.016;2022-09-29T06:16:29;4.25;;;2.53;;
64682;SDS011;51107;47.652;19.016;2022-09-29T06:18:59;3.65;;;2.53;;
64682;SDS011;51107;47.652;19.016;2022-09-29T06:21:28;3.53;;;2.35;;
64682;SDS011;51107;47.652;19.016;2022-09-29T06:24:01;5.93;;;1.98;;
64682;SDS011;51107;47.652;19.016;2022-09-29T06:26:30;2.85;;;1.90;;
64682;SDS011;51107;47.652;19.016;2022-09-29T06:28:58;2.62;;;2.03;;
64682;SDS011;51107;47.652;19.016;2022-09-29T06:31:29;4.28;;;2.60;;
64682;SDS011;51107;47.652;19.016;2022-09-29T06:33:59;4.03;;;2.00;;
64682;SDS011;51107;47.652;19.016;2022-09-29T06:36:31;3.35;;;1.75;;
64682;SDS011;51107;47.652;19.016;2022-09-29T06:39:21;1.60;;;1.48;;
64682;SDS011;51107;47.652;19.016;2022-09-29T06:41:50;1.77;;;1.50;;
64682;SDS011;51107;47.652;19.016;2022-09-29T06:44:24;2.22;;;1.45;;
64682;SDS011;51107;47.652;19.016;2022-09-29T06:46:54;2.55;;;1.48;;
64682;SDS011;51107;47.652;19.016;2022-09-29T06:49:22;2.60;;;1.65;;
64682;SDS011;51107;47.652;19.016;2022-09-29T06:51:51;3.25;;;1.70;;
64682;SDS011;51107;47.652;19.016;2022-09-29T06:54:20;2.33;;;1.37;;
64682;SDS011;51107;47.652;19.016;2022-09-29T06:56:52;2.62;;;1.00;;
64682;SDS011;51107;47.652;19.016;2022-09-29T06:59:24;1.20;;;0.60;;
64682;SDS011;51107;47.652;19.016;2022-09-29T07:01:52;0.40;;;0.40;;
64682;SDS011;51107;47.652;19.016;2022-09-29T07:04:20;0.82;;;0.57;;
64682;SDS011;51107;47.652;19.016;2022-09-29T07:06:49;3.50;;;1.05;;
64682;SDS011;51107;47.652;19.016;2022-09-29T07:09:18;2.92;;;0.52;;
64682;SDS011;51107;47.652;19.016;2022-09-29T07:11:48;0.40;;;0.30;;
64682;SDS011;51107;47.652;19.016;2022-09-29T07:14:18;0.40;;;0.35;;
64682;SDS011;51107;47.652;19.016;2022-09-29T07:16:52;5.30;;;0.40;;
64682;SDS011;51107;47.652;19.016;2022-09-29T07:19:21;0.30;;;0.30;;
64682;SDS011;51107;47.652;19.016;2022-09-29T07:21:49;0.43;;;0.37;;
64682;SDS011;51107;47.652;19.016;2022-09-29T07:24:18;0.70;;;0.50;;
64682;SDS011;51107;47.652;19.016;2022-09-29T07:26:47;0.35;;;0.35;;
64682;SDS011;51107;47.652;19.016;2022-09-29T07:29:15;0.43;;;0.32;;
64682;SDS011;51107;47.652;19.016;2022-09-29T07:31:44;0.40;;;0.30;;
64682;SDS011;51107;47.652;19.016;2022-09-29T07:34:19;0.50;;;0.40;;
64682;SDS011;51107;47.652;19.016;2022-09-29T07:36:48;0.40;;;0.30;;
64682;SDS011;51107;47.652;19.016;2022-09-29T07:39:18;0.43;;;0.40;;
64682;SDS011;51107;47.652;19.016;2022-09-29T07:41:49;0.52;;;0.50;;
64682;SDS011;51107;47.652;19.016;2022-09-29T07:44:18;0.45;;;0.45;;
64682;SDS011;51107;47.652;19.016;2022-09-29T07:46:47;0.73;;;0.70;;
64682;SDS011;51107;47.652;19.016;2022-09-29T07:49:17;1.10;;;0.50;;
64682;SDS011;51107;47.652;19.016;2022-09-29T07:51:45;1.12;;;0.88;;
64682;SDS011;51107;47.652;19.016;2022-09-29T07:54:14;1.35;;;0.52;;
64682;SDS011;51107;47.652;19.016;2022-09-29T07:56:43;0.80;;;0.70;;
64682;SDS011;51107;47.652;19.016;2022-09-29T07:59:11;1.15;;;0.90;;
64682;SDS011;51107;47.652;19.016;2022-09-29T08:01:40;1.33;;;0.75;;
64682;SDS011;51107;47.652;19.016;2022-09-29T08:04:08;0.60;;;0.60;;
64682;SDS011;51107;47.652;19.016;2022-09-29T08:06:37;0.88;;;0.73;;
64682;SDS011;51107;47.652;19.016;2022-09-29T08:09:06;1.00;;;0.80;;
64682;SDS011;51107;47.652;19.016;2022-09-29T08:11:38;0.85;;;0.70;;
64682;SDS011;51107;47.652;19.016;2022-09-29T08:14:08;1.35;;;0.80;;
64682;SDS011;51107;47.652;19.016;2022-09-29T08:16:38;0.77;;;0.57;;
64682;SDS011;51107;47.652;19.016;2022-09-29T08:19:06;0.68;;;0.60;;
64682;SDS011;51107;47.652;19.016;2022-09-29T08:21:34;1.10;;;0.82;;
64682;SDS011;51107;47.652;19.016;2022-09-29T08:24:05;0.70;;;0.68;;
64682;SDS011;51107;47.652;19.016;2022-09-29T08:26:35;0.80;;;0.68;;
64682;SDS011;51107;47.652;19.016;2022-09-29T08:29:11;0.70;;;0.40;;
64682;SDS011;51107;47.652;19.016;2022-09-29T08:31:44;0.75;;;0.40;;
64682;SDS011;51107;47.652;19.016;2022-09-29T08:34:13;0.85;;;0.70;;
64682;SDS011;51107;47.652;19.016;2022-09-29T08:36:42;0.30;;;0.30;;
64682;SDS011;51107;47.652;19.016;2022-09-29T08:39:10;0.50;;;0.50;;
64682;SDS011;51107;47.652;19.016;2022-09-29T08:41:53;0.37;;;0.37;;
64682;SDS011;51107;47.652;19.016;2022-09-29T08:44:37;1.08;;;0.70;;
64682;SDS011;51107;47.652;19.016;2022-09-29T08:47:44;0.37;;;0.37;;
64682;SDS011;51107;47.652;19.016;2022-09-29T08:50:25;0.88;;;0.55;;
64682;SDS011;51107;47.652;19.016;2022-09-29T08:53:17;0.88;;;0.55;;
64682;SDS011;51107;47.652;19.016;2022-09-29T08:56:03;0.40;;;0.40;;
64682;SDS011;51107;47.652;19.016;2022-09-29T09:10:02;0.30;;;0.28;;
64682;SDS011;51107;47.652;19.016;2022-09-29T09:13:04;0.20;;;0.20;;
64682;SDS011;51107;47.652;19.016;2022-09-29T09:18:36;0.40;;;0.30;;
64682;SDS011;51107;47.652;19.016;2022-09-29T09:21:24;0.62;;;0.25;;
64682;SDS011;51107;47.652;19.016;2022-09-29T09:26:51;0.50;;;0.37;;
64682;SDS011;51107;47.652;19.016;2022-09-29T09:32:09;0.80;;;0.40;;
64682;SDS011;51107;47.652;19.016;2022-09-29T09:34:46;0.45;;;0.30;;
64682;SDS011;51107;47.652;19.016;2022-09-29T09:37:45;1.42;;;0.60;;
64682;SDS011;51107;47.652;19.016;2022-09-29T09:40:19;1.90;;;0.40;;
64682;SDS011;51107;47.652;19.016;2022-09-29T09:43:39;0.20;;;0.20;;
64682;SDS011;51107;47.652;19.016;2022-09-29T09:48:25;0.20;;;0.20;;
64682;SDS011;51107;47.652;19.016;2022-09-29T09:51:12;1.17;;;0.30;;
64682;SDS011;51107;47.652;19.016;2022-09-29T09:53:53;0.50;;;0.40;;
64682;SDS011;51107;47.652;19.016;2022-09-29T09:56:41;0.95;;;0.77;;
64682;SDS011;51107;47.652;19.016;2022-09-29T10:02:21;6.93;;;0.60;;
64682;SDS011;51107;47.652;19.016;2022-09-29T10:04:51;1.70;;;0.55;;
64682;SDS011;51107;47.652;19.016;2022-09-29T10:07:24;0.57;;;0.50;;
64682;SDS011;51107;47.652;19.016;2022-09-29T10:09:56;0.52;;;0.47;;
64682;SDS011;51107;47.652;19.016;2022-09-29T10:12:30;0.40;;;0.40;;
64682;SDS011;51107;47.652;19.016;2022-09-29T10:15:00;0.32;;;0.32;;
64682;SDS011;51107;47.652;19.016;2022-09-29T10:17:35;0.85;;;0.55;;
64682;SDS011;51107;47.652;19.016;2022-09-29T10:20:10;0.77;;;0.60;;
64682;SDS011;51107;47.652;19.016;2022-09-29T10:22:38;1.20;;;0.47;;
64682;SDS011;51107;47.652;19.016;2022-09-29T10:27:47;0.68;;;0.55;;
64682;SDS011;51107;47.652;19.016;2022-09-29T10:32:51;0.70;;;0.60;;
64682;SDS011;51107;47.652;19.016;2022-09-29T10:35:31;0.77;;;0.50;;
64682;SDS011;51107;47.652;19.016;2022-09-29T10:38:07;0.60;;;0.60;;
64682;SDS011;51107;47.652;19.016;2022-09-29T10:40:57;2.45;;;0.60;;
64682;SDS011;51107;47.652;19.016;2022-09-29T10:43:31;0.65;;;0.57;;
64682;SDS011;51107;47.652;19.016;2022-09-29T10:49:07;0.70;;;0.70;;
64682;SDS011;51107;47.652;19.016;2022-09-29T10:51:51;1.25;;;0.80;;
64682;SDS011;51107;47.652;19.016;2022-09-29T10:54:20;0.60;;;0.50;;
64682;SDS011;51107;47.652;19.016;2022-09-29T10:56:54;0.77;;;0.60;;
64682;SDS011;51107;47.652;19.016;2022-09-29T10:59:25;0.50;;;0.50;;
64682;SDS011;51107;47.652;19.016;2022-09-29T11:01:55;2.40;;;0.95;;
64682;SDS011;51107;47.652;19.016;2022-09-29T11:04:30;2.40;;;1.40;;
64682;SDS011;51107;47.652;19.016;2022-09-29T11:07:19;1.45;;;0.70;;
64682;SDS011;51107;47.652;19.016;2022-09-29T11:09:47;0.80;;;0.62;;
64682;SDS011;51107;47.652;19.016;2022-09-29T11:15:00;0.55;;;0.50;;
64682;SDS011;51107;47.652;19.016;2022-09-29T11:17:30;0.50;;;0.40;;
64682;SDS011;51107;47.652;19.016;2022-09-29T11:20:06;0.22;;;0.22;;
64682;SDS011;51107;47.652;19.016;2022-09-29T11:45:19;0.30;;;0.30;;
64682;SDS011;51107;47.652;19.016;2022-09-29T11:48:35;0.40;;;0.40;;
64682;SDS011;51107;47.652;19.016;2022-09-29T11:51:07;0.57;;;0.57;;
64682;SDS011;51107;47.652;19.016;2022-09-29T12:14:11;0.43;;;0.30;;
64682;SDS011;51107;47.652;19.016;2022-09-29T12:16:57;0.35;;;0.30;;
64682;SDS011;51107;47.652;19.016;2022-09-29T12:19:31;0.30;;;0.30;;
64682;SDS011;51107;47.652;19.016;2022-09-29T12:22:06;0.73;;;0.40;;
64682;SDS011;51107;47.652;19.016;2022-09-29T12:24:41;0.25;;;0.20;;
64682;SDS011;51107;47.652;19.016;2022-09-29T12:27:26;0.45;;;0.30;;
64682;SDS011;51107;47.652;19.016;2022-09-29T12:30:02;0.22;;;0.22;;
64682;SDS011;51107;47.652;19.016;2022-09-29T12:32:48;0.57;;;0.40;;
64682;SDS011;51107;47.652;19.016;2022-09-29T12:35:30;0.52;;;0.50;;
64682;SDS011;51107;47.652;19.016;2022-09-29T12:41:23;0.40;;;0.40;;
64682;SDS011;51107;47.652;19.016;2022-09-29T12:43:58;0.30;;;0.30;;
64682;SDS011;51107;47.652;19.016;2022-09-29T12:46:35;0.50;;;0.50;;
64682;SDS011;51107;47.652;19.016;2022-09-29T12:51:49;0.30;;;0.30;;
64682;SDS011;51107;47.652;19.016;2022-09-29T12:54:33;0.40;;;0.40;;
64682;SDS011;51107;47.652;19.016;2022-09-29T12:57:13;0.55;;;0.50;;
64682;SDS011;51107;47.652;19.016;2022-09-29T13:20:02;2.17;;;0.55;;
64682;SDS011;51107;47.652;19.016;2022-09-29T13:22:37;0.80;;;0.50;;
64682;SDS011;51107;47.652;19.016;2022-09-29T13:25:55;0.40;;;0.40;;
64682;SDS011;51107;47.652;19.016;2022-09-29T13:28:42;0.55;;;0.55;;
64682;SDS011;51107;47.652;19.016;2022-09-29T13:31:16;0.75;;;0.45;;
64682;SDS011;51107;47.652;19.016;2022-09-29T13:33:56;1.65;;;0.47;;
64682;SDS011;51107;47.652;19.016;2022-09-29T13:36:33;0.30;;;0.30;;
64682;SDS011;51107;47.652;19.016;2022-09-29T13:39:06;1.02;;;0.55;;
64682;SDS011;51107;47.652;19.016;2022-09-29T13:41:46;0.60;;;0.40;;
64682;SDS011;51107;47.652;19.016;2022-09-29T13:46:43;0.28;;;0.28;;
64682;SDS011;51107;47.652;19.016;2022-09-29T13:49:13;0.20;;;0.20;;
64682;SDS011;51107;47.652;19.016;2022-09-29T13:51:54;0.47;;;0.47;;
64682;SDS011;51107;47.652;19.016;2022-09-29T13:54:46;0.70;;;0.60;;
64682;SDS011;51107;47.652;19.016;2022-09-29T14:08:11;0.40;;;0.40;;
64682;SDS011;51107;47.652;19.016;2022-09-29T14:10:44;0.40;;;0.40;;
64682;SDS011;51107;47.652;19.016;2022-09-29T14:16:22;0.50;;;0.40;;
64682;SDS011;51107;47.652;19.016;2022-09-29T14:19:06;0.70;;;0.60;;
64682;SDS011;51107;47.652;19.016;2022-09-29T14:21:43;1.17;;;0.57;;
64682;SDS011;51107;47.652;19.016;2022-09-29T14:27:20;1.35;;;0.60;;
64682;SDS011;51107;47.652;19.016;2022-09-29T14:29:59;1.62;;;0.70;;
64682;SDS011;51107;47.652;19.016;2022-09-29T14:32:42;2.78;;;0.77;;
64682;SDS011;51107;47.652;19.016;2022-09-29T14:35:36;1.73;;;0.55;;
64682;SDS011;51107;47.652;19.016;2022-09-29T14:41:40;0.68;;;0.37;;
64682;SDS011;51107;47.652;19.016;2022-09-29T14:44:11;1.23;;;0.40;;
64682;SDS011;51107;47.652;19.016;2022-09-29T14:50:25;1.08;;;0.80;;
64682;SDS011;51107;47.652;19.016;2022-09-29T14:56:14;0.45;;;0.40;;
64682;SDS011;51107;47.652;19.016;2022-09-29T14:59:38;0.73;;;0.50;;
64682;SDS011;51107;47.652;19.016;2022-09-29T15:04:43;0.45;;;0.43;;
64682;SDS011;51107;47.652;19.016;2022-09-29T15:07:13;0.77;;;0.50;;
64682;SDS011;51107;47.652;19.016;2022-09-29T15:09:57;0.60;;;0.57;;
64682;SDS011;51107;47.652;19.016;2022-09-29T15:12:27;2.10;;;0.80;;
64682;SDS011;51107;47.652;19.016;2022-09-29T15:14:58;1.08;;;0.80;;
64682;SDS011;51107;47.652;19.016;2022-09-29T15:17:30;0.68;;;0.60;;
64682;SDS011;51107;47.652;19.016;2022-09-29T15:26:07;10.50;;;4.50;;
64682;SDS011;51107;47.652;19.016;2022-09-29T15:28:40;9.60;;;4.18;;
64682;SDS011;51107;47.652;19.016;2022-09-29T15:31:18;8.25;;;2.58;;
64682;SDS011;51107;47.652;19.016;2022-09-29T15:33:48;3.90;;;1.58;;
64682;SDS011;51107;47.652;19.016;2022-09-29T15:36:20;12.98;;;3.95;;
64682;SDS011;51107;47.652;19.016;2022-09-29T15:39:40;20.12;;;8.07;;
64682;SDS011;51107;47.652;19.016;2022-09-29T15:41:58;5.85;;;2.70;;
64682;SDS011;51107;47.652;19.016;2022-09-29T15:44:28;12.63;;;2.25;;
64682;SDS011;51107;47.652;19.016;2022-09-29T15:47:00;6.78;;;3.47;;
64682;SDS011;51107;47.652;19.016;2022-09-29T15:49:29;22.40;;;8.77;;
64682;SDS011;51107;47.652;19.016;2022-09-29T15:54:40;20.90;;;8.68;;
64682;SDS011;51107;47.652;19.016;2022-09-29T15:57:30;24.50;;;10.43;;
64682;SDS011;51107;47.652;19.016;2022-09-29T16:01:03;4.30;;;1.40;;
64682;SDS011;51107;47.652;19.016;2022-09-29T16:03:08;1.12;;;0.82;;
64682;SDS011;51107;47.652;19.016;2022-09-29T16:05:42;2.05;;;1.30;;
64682;SDS011;51107;47.652;19.016;2022-09-29T16:08:20;1.62;;;1.25;;
64682;SDS011;51107;47.652;19.016;2022-09-29T16:10:55;3.87;;;1.70;;
64682;SDS011;51107;47.652;19.016;2022-09-29T16:13:35;2.45;;;1.60;;
64682;SDS011;51107;47.652;19.016;2022-09-29T16:16:08;2.37;;;1.17;;
64682;SDS011;51107;47.652;19.016;2022-09-29T16:18:47;3.85;;;1.85;;
64682;SDS011;51107;47.652;19.016;2022-09-29T16:21:18;13.27;;;4.60;;
64682;SDS011;51107;47.652;19.016;2022-09-29T16:24:01;25.42;;;11.80;;
64682;SDS011;51107;47.652;19.016;2022-09-29T16:26:42;19.27;;;8.95;;
64682;SDS011;51107;47.652;19.016;2022-09-29T16:31:45;6.45;;;3.00;;
64682;SDS011;51107;47.652;19.016;2022-09-29T16:36:49;4.15;;;2.70;;
64682;SDS011;51107;47.652;19.016;2022-09-29T16:39:41;2.53;;;1.40;;
64682;SDS011;51107;47.652;19.016;2022-09-29T16:42:19;7.10;;;2.85;;
64682;SDS011;51107;47.652;19.016;2022-09-29T16:44:54;3.47;;;2.20;;
64682;SDS011;51107;47.652;19.016;2022-09-29T16:47:27;9.82;;;2.42;;
64682;SDS011;51107;47.652;19.016;2022-09-29T16:49:59;6.05;;;2.17;;
64682;SDS011;51107;47.652;19.016;2022-09-29T16:52:42;5.40;;;2.15;;
64682;SDS011;51107;47.652;19.016;2022-09-29T16:58:04;2.95;;;1.95;;
64682;SDS011;51107;47.652;19.016;2022-09-29T17:00:41;6.00;;;2.55;;
64682;SDS011;51107;47.652;19.016;2022-09-29T17:03:11;5.70;;;2.78;;
64682;SDS011;51107;47.652;19.016;2022-09-29T17:05:41;3.58;;;1.75;;
64682;SDS011;51107;47.652;19.016;2022-09-29T17:08:24;3.95;;;1.83;;
64682;SDS011;51107;47.652;19.016;2022-09-29T17:10:57;2.85;;;2.00;;
64682;SDS011;51107;47.652;19.016;2022-09-29T17:13:31;3.90;;;2.37;;
64682;SDS011;51107;47.652;19.016;2022-09-29T17:18:32;4.90;;;2.95;;
64682;SDS011;51107;47.652;19.016;2022-09-29T17:21:00;6.35;;;3.78;;
64682;SDS011;51107;47.652;19.016;2022-09-29T17:23:28;7.47;;;4.03;;
64682;SDS011;51107;47.652;19.016;2022-09-29T17:25:57;6.82;;;2.30;;
64682;SDS011;51107;47.652;19.016;2022-09-29T17:28:46;1.45;;;1.10;;
64682;SDS011;51107;47.652;19.016;2022-09-29T17:31:15;3.97;;;1.77;;
64682;SDS011;51107;47.652;19.016;2022-09-29T17:33:43;1.87;;;1.40;;
64682;SDS011;51107;47.652;19.016;2022-09-29T17:36:15;4.57;;;2.00;;
64682;SDS011;51107;47.652;19.016;2022-09-29T17:38:44;2.42;;;1.60;;
64682;SDS011;51107;47.652;19.016;2022-09-29T17:41:16;2.05;;;1.48;;
64682;SDS011;51107;47.652;19.016;2022-09-29T17:43:45;2.25;;;1.40;;
64682;SDS011;51107;47.652;19.016;2022-09-29T17:46:14;7.10;;;3.25;;
64682;SDS011;51107;47.652;19.016;2022-09-29T17:48:45;12.18;;;6.62;;
64682;SDS011;51107;47.652;19.016;2022-09-29T17:51:14;6.05;;;2.50;;
64682;SDS011;51107;47.652;19.016;2022-09-29T17:53:47;3.80;;;2.25;;
64682;SDS011;51107;47.652;19.016;2022-09-29T17:56:22;19.65;;;8.90;;
64682;SDS011;51107;47.652;19.016;2022-09-29T17:58:55;13.05;;;7.07;;
64682;SDS011;51107;47.652;19.016;2022-09-29T18:01:25;6.12;;;3.72;;
64682;SDS011;51107;47.652;19.016;2022-09-29T18:03:54;3.35;;;2.35;;
64682;SDS011;51107;47.652;19.016;2022-09-29T18:06:23;4.70;;;2.87;;
64682;SDS011;51107;47.652;19.016;2022-09-29T18:08:53;4.95;;;2.50;;
64682;SDS011;51107;47.652;19.016;2022-09-29T18:11:23;7.12;;;3.17;;
64682;SDS011;51107;47.652;19.016;2022-09-29T18:13:55;3.92;;;2.55;;
64682;SDS011;51107;47.652;19.016;2022-09-29T18:16:27;5.55;;;2.70;;
64682;SDS011;51107;47.652;19.016;2022-09-29T18:18:55;6.20;;;3.87;;